Time;durP1;ratioP1;P1;durP2;ratioP2;P2;SDS_P1;SDS_P2;PMS_P1;PMS_P2;Temp;Humidity;BMP_temperature;BMP_pressure;BME280_temperature;BME280_humidity;BME280_pressure;Samples;Min_cycle;Max_cycle;Signal;HPM_P1;HPM_P2
2022/03/30 00:01:25;;;;;;;161.23;57.30;;;;;;;;;;5071465;28;20056;-65
2022/03/30 00:03:51;;;;;;;166.05;57.63;;;;;;;;;;5071773;28;20461;-65
2022/03/30 00:06:17;;;;;;;149.10;56.47;;;;;;;;;;5071549;28;20024;-65
2022/03/30 00:08:44;;;;;;;164.30;58.20;;;;;;;;;;5071871;28;20473;-64
2022/03/30 00:11:11;;;;;;;173.93;57.67;;;;;;;;;;5071872;28;20017;-65
2022/03/30 00:13:38;;;;;;;164.00;53.53;;;;;;;;;;5071528;28;20055;-65
2022/03/30 00:16:05;;;;;;;153.23;55.83;;;;;;;;;;5071704;28;20024;-64
2022/03/30 00:18:31;;;;;;;177.68;57.00;;;;;;;;;;5071342;28;20029;-65
2022/03/30 00:20:57;;;;;;;162.25;54.75;;;;;;;;;;5075173;28;20028;-64
2022/03/30 00:23:23;;;;;;;151.32;53.53;;;;;;;;;;5075227;28;20028;-65
2022/03/30 00:25:50;;;;;;;162.60;58.55;;;;;;;;;;5075945;28;20035;-65
2022/03/30 00:28:16;;;;;;;155.40;54.20;;;;;;;;;;5075687;28;20361;-65
2022/03/30 00:30:42;;;;;;;165.48;52.92;;;;;;;;;;5075785;28;20103;-65
2022/03/30 00:33:09;;;;;;;164.02;54.65;;;;;;;;;;5075258;28;20074;-65
2022/03/30 00:35:35;;;;;;;157.82;56.67;;;;;;;;;;5075197;28;20100;-65
2022/03/30 00:38:03;;;;;;;169.07;54.75;;;;;;;;;;5075416;28;20056;-65
2022/03/30 00:40:29;;;;;;;156.73;54.05;;;;;;;;;;5075335;28;20495;-65
2022/03/30 00:42:56;;;;;;;170.43;54.90;;;;;;;;;;5075306;28;20522;-65
2022/03/30 00:45:23;;;;;;;163.75;56.25;;;;;;;;;;5074981;28;20403;-64
2022/03/30 00:47:49;;;;;;;148.40;56.45;;;;;;;;;;5075001;28;20028;-65
2022/03/30 00:50:17;;;;;;;151.95;55.17;;;;;;;;;;5075107;28;20027;-65
2022/03/30 00:52:47;;;;;;;177.07;55.75;;;;;;;;;;5075233;28;20540;-65
2022/03/30 00:55:16;;;;;;;148.30;53.40;;;;;;;;;;5075394;28;20056;-64
2022/03/30 00:57:43;;;;;;;154.20;53.03;;;;;;;;;;5074785;28;20009;-65
2022/03/30 01:00:12;;;;;;;175.30;56.53;;;;;;;;;;5075074;28;20032;-65
2022/03/30 01:02:39;;;;;;;145.02;55.33;;;;;;;;;;5074450;28;20031;-65
2022/03/30 01:05:06;;;;;;;159.07;51.30;;;;;;;;;;5075175;28;20024;-65
2022/03/30 01:07:32;;;;;;;164.60;54.50;;;;;;;;;;5074481;28;20025;-65
2022/03/30 01:09:58;;;;;;;164.10;55.88;;;;;;;;;;5074984;28;20024;-65
2022/03/30 01:12:25;;;;;;;147.85;51.45;;;;;;;;;;5074747;28;20107;-65
2022/03/30 01:14:52;;;;;;;156.30;51.65;;;;;;;;;;5074502;28;20121;-65
2022/03/30 01:17:19;;;;;;;161.20;54.72;;;;;;;;;;5074251;28;20040;-65
2022/03/30 01:19:45;;;;;;;149.77;54.70;;;;;;;;;;5074487;28;20028;-65
2022/03/30 01:22:11;;;;;;;153.70;50.15;;;;;;;;;;5074519;28;20033;-65
2022/03/30 01:24:37;;;;;;;151.15;51.58;;;;;;;;;;5074439;28;20024;-65
2022/03/30 01:27:03;;;;;;;156.30;53.40;;;;;;;;;;5074467;28;20035;-65
2022/03/30 01:32:27;;;;;;;145.05;51.28;;;;;;;;;;5073765;28;20024;-65
2022/03/30 01:34:57;;;;;;;144.13;52.83;;;;;;;;;;5074177;28;20409;-65
2022/03/30 01:37:24;;;;;;;146.98;51.70;;;;;;;;;;5074186;28;20137;-65
2022/03/30 01:39:50;;;;;;;147.18;50.67;;;;;;;;;;5058459;28;20021;-64
2022/03/30 01:42:17;;;;;;;149.80;51.58;;;;;;;;;;5074335;28;20024;-65
2022/03/30 01:44:44;;;;;;;143.02;50.53;;;;;;;;;;5074066;28;20103;-65
2022/03/30 01:47:10;;;;;;;141.98;48.83;;;;;;;;;;5074180;28;20392;-65
2022/03/30 01:49:37;;;;;;;140.50;49.50;;;;;;;;;;5073783;28;20025;-64
2022/03/30 01:52:03;;;;;;;159.32;53.67;;;;;;;;;;5074101;28;20033;-65
2022/03/30 01:54:34;;;;;;;140.02;49.85;;;;;;;;;;5074040;28;20056;-65
2022/03/30 01:57:00;;;;;;;147.15;49.90;;;;;;;;;;5073975;28;20028;-65
2022/03/30 01:59:26;;;;;;;152.85;50.92;;;;;;;;;;5073920;28;20115;-65
2022/03/30 02:01:52;;;;;;;140.38;49.90;;;;;;;;;;5057382;28;20463;-65
2022/03/30 02:04:18;;;;;;;150.35;51.42;;;;;;;;;;5073909;28;20141;-65
2022/03/30 02:06:45;;;;;;;127.95;49.50;;;;;;;;;;5073679;28;20120;-65
2022/03/30 02:09:12;;;;;;;160.50;52.45;;;;;;;;;;5073863;28;20029;-64
2022/03/30 02:11:38;;;;;;;154.25;53.05;;;;;;;;;;5073518;28;20073;-65
2022/03/30 02:14:05;;;;;;;155.10;52.28;;;;;;;;;;5073408;28;20329;-65
2022/03/30 02:16:31;;;;;;;147.98;50.80;;;;;;;;;;5073351;28;20108;-65
2022/03/30 02:18:57;;;;;;;134.90;50.63;;;;;;;;;;5073758;28;20414;-65
2022/03/30 02:21:24;;;;;;;126.82;48.88;;;;;;;;;;5073488;28;20032;-65
2022/03/30 02:23:51;;;;;;;146.50;52.85;;;;;;;;;;5073145;28;20028;-65
2022/03/30 02:26:17;;;;;;;155.93;51.47;;;;;;;;;;5073370;28;20029;-65
2022/03/30 02:28:44;;;;;;;151.60;55.20;;;;;;;;;;5073087;28;20031;-65
2022/03/30 02:31:13;;;;;;;155.75;52.78;;;;;;;;;;5073171;28;20458;-65
2022/03/30 02:33:39;;;;;;;155.77;53.35;;;;;;;;;;5072648;28;20045;-65
2022/03/30 02:36:05;;;;;;;148.85;52.50;;;;;;;;;;5073369;28;20055;-65
2022/03/30 02:38:32;;;;;;;150.82;53.38;;;;;;;;;;5073080;28;20070;-65
2022/03/30 02:40:58;;;;;;;156.27;56.13;;;;;;;;;;5073102;28;20078;-65
2022/03/30 02:43:24;;;;;;;166.90;54.83;;;;;;;;;;5071960;28;20060;-64
2022/03/30 02:45:50;;;;;;;147.82;52.60;;;;;;;;;;5072702;28;20032;-65
2022/03/30 02:48:21;;;;;;;146.93;51.67;;;;;;;;;;5072950;28;20067;-65
2022/03/30 02:50:51;;;;;;;148.43;51.97;;;;;;;;;;5072834;28;20070;-64
2022/03/30 02:53:18;;;;;;;141.95;52.78;;;;;;;;;;5073127;28;20123;-65
2022/03/30 02:55:45;;;;;;;142.95;55.38;;;;;;;;;;5072478;28;20024;-65
2022/03/30 02:58:11;;;;;;;143.35;50.08;;;;;;;;;;5072397;28;20067;-65
2022/03/30 03:00:38;;;;;;;151.38;54.35;;;;;;;;;;5072642;28;20381;-65
2022/03/30 03:03:05;;;;;;;151.93;53.10;;;;;;;;;;5072724;28;20434;-65
2022/03/30 03:05:34;;;;;;;160.32;57.00;;;;;;;;;;5072674;28;20028;-65
2022/03/30 03:08:01;;;;;;;148.75;53.80;;;;;;;;;;5072687;28;20024;-65
2022/03/30 03:10:27;;;;;;;143.25;50.13;;;;;;;;;;5072626;28;20031;-65
2022/03/30 03:12:53;;;;;;;147.90;50.83;;;;;;;;;;5072186;28;20025;-65
2022/03/30 03:15:20;;;;;;;141.73;49.17;;;;;;;;;;5072470;28;20053;-65
2022/03/30 03:17:46;;;;;;;141.60;50.13;;;;;;;;;;5072072;28;20031;-65
2022/03/30 03:20:12;;;;;;;140.80;50.97;;;;;;;;;;5072499;28;20024;-65
2022/03/30 03:22:39;;;;;;;125.78;46.50;;;;;;;;;;5072303;28;20119;-65
2022/03/30 03:25:05;;;;;;;138.32;49.05;;;;;;;;;;5072239;28;20480;-65
2022/03/30 03:27:31;;;;;;;128.57;46.50;;;;;;;;;;5072250;28;20035;-65
2022/03/30 03:29:57;;;;;;;123.32;44.55;;;;;;;;;;5072003;28;20041;-65
2022/03/30 03:32:24;;;;;;;133.48;47.50;;;;;;;;;;5072186;28;20028;-65
2022/03/30 03:34:50;;;;;;;128.82;46.17;;;;;;;;;;5071903;28;20366;-65
2022/03/30 03:37:16;;;;;;;143.15;48.80;;;;;;;;;;5072156;28;20029;-65
2022/03/30 03:39:42;;;;;;;137.68;47.63;;;;;;;;;;5071920;28;20442;-65
2022/03/30 03:42:09;;;;;;;139.02;47.05;;;;;;;;;;5071720;28;20029;-65
2022/03/30 03:44:35;;;;;;;126.85;46.15;;;;;;;;;;5072227;28;20443;-65
2022/03/30 03:47:01;;;;;;;127.47;44.35;;;;;;;;;;5071716;28;20031;-65
2022/03/30 03:49:27;;;;;;;116.63;43.70;;;;;;;;;;5072081;28;20099;-65
2022/03/30 03:51:54;;;;;;;118.50;44.03;;;;;;;;;;5071725;28;20024;-65
2022/03/30 03:54:20;;;;;;;129.73;42.20;;;;;;;;;;5071768;28;20096;-65
2022/03/30 03:56:46;;;;;;;136.07;45.88;;;;;;;;;;5071340;28;20480;-65
2022/03/30 03:59:12;;;;;;;124.38;43.65;;;;;;;;;;5071800;28;20081;-65
2022/03/30 04:01:38;;;;;;;119.55;43.67;;;;;;;;;;5071815;28;20636;-65
2022/03/30 04:04:06;;;;;;;115.10;38.35;;;;;;;;;;5071787;28;20012;-65
2022/03/30 04:06:32;;;;;;;115.78;40.00;;;;;;;;;;5071967;28;20610;-65
2022/03/30 04:08:59;;;;;;;105.47;39.03;;;;;;;;;;5071705;28;20074;-65
2022/03/30 04:11:25;;;;;;;117.35;41.88;;;;;;;;;;5071552;28;20021;-65
2022/03/30 04:13:51;;;;;;;116.47;39.83;;;;;;;;;;5071331;28;20041;-65
2022/03/30 04:16:17;;;;;;;116.43;39.35;;;;;;;;;;5071867;28;20017;-65
2022/03/30 04:18:44;;;;;;;131.18;44.08;;;;;;;;;;5071745;28;20025;-65
2022/03/30 04:21:10;;;;;;;134.18;41.35;;;;;;;;;;5071854;28;20039;-65
2022/03/30 04:23:36;;;;;;;115.97;43.20;;;;;;;;;;5071606;28;20041;-65
2022/03/30 04:26:02;;;;;;;116.85;42.92;;;;;;;;;;5070988;28;20309;-65
2022/03/30 04:28:28;;;;;;;124.13;42.58;;;;;;;;;;5071819;28;20477;-65
2022/03/30 04:30:54;;;;;;;124.65;41.15;;;;;;;;;;5071379;28;20039;-65
2022/03/30 04:33:21;;;;;;;119.97;43.38;;;;;;;;;;5071535;28;20032;-65
2022/03/30 04:35:47;;;;;;;116.97;41.30;;;;;;;;;;5071237;28;20025;-65
2022/03/30 04:38:14;;;;;;;116.78;40.30;;;;;;;;;;5055255;28;20027;-65
2022/03/30 04:40:40;;;;;;;132.25;40.88;;;;;;;;;;5071151;28;20069;-65
2022/03/30 04:43:07;;;;;;;102.45;40.28;;;;;;;;;;5071311;28;20032;-65
2022/03/30 04:45:33;;;;;;;115.88;41.42;;;;;;;;;;5071547;28;20077;-65
2022/03/30 04:48:00;;;;;;;112.10;39.85;;;;;;;;;;5071000;28;20081;-65
2022/03/30 04:50:26;;;;;;;118.65;42.45;;;;;;;;;;5071424;28;20036;-65
2022/03/30 04:52:52;;;;;;;107.70;41.03;;;;;;;;;;5071264;28;20032;-65
2022/03/30 04:55:19;;;;;;;109.65;39.40;;;;;;;;;;5071103;28;20056;-65
2022/03/30 04:57:45;;;;;;;106.75;39.28;;;;;;;;;;5069682;28;20024;-65
2022/03/30 05:00:12;;;;;;;114.47;39.35;;;;;;;;;;5064599;28;20435;-65
2022/03/30 05:02:38;;;;;;;118.88;39.65;;;;;;;;;;5071347;28;20032;-65
2022/03/30 05:05:05;;;;;;;123.32;41.67;;;;;;;;;;5069847;28;20480;-65
2022/03/30 05:07:31;;;;;;;110.82;39.88;;;;;;;;;;5070128;28;20082;-65
2022/03/30 05:09:57;;;;;;;119.82;39.65;;;;;;;;;;5073170;28;20104;-65
2022/03/30 05:12:24;;;;;;;112.55;40.17;;;;;;;;;;5074577;28;20455;-65
2022/03/30 05:14:50;;;;;;;110.72;38.17;;;;;;;;;;5072993;28;20407;-65
2022/03/30 05:17:16;;;;;;;111.60;40.85;;;;;;;;;;5072500;28;20078;-65
2022/03/30 05:19:44;;;;;;;120.65;42.08;;;;;;;;;;5073350;28;20455;-65
2022/03/30 05:22:10;;;;;;;119.78;39.00;;;;;;;;;;5070008;28;20124;-66
2022/03/30 05:24:37;;;;;;;108.97;40.60;;;;;;;;;;5071972;28;20481;-66
2022/03/30 05:27:03;;;;;;;108.88;38.97;;;;;;;;;;5072221;28;20025;-66
2022/03/30 05:29:30;;;;;;;108.10;41.45;;;;;;;;;;5072591;28;20038;-66
2022/03/30 05:31:56;;;;;;;109.97;40.90;;;;;;;;;;5071960;28;20473;-66
2022/03/30 05:34:24;;;;;;;119.90;40.88;;;;;;;;;;5072063;28;20025;-66
2022/03/30 05:36:50;;;;;;;112.20;42.50;;;;;;;;;;5072740;28;20052;-66
2022/03/30 05:39:17;;;;;;;115.47;42.25;;;;;;;;;;5071737;28;20028;-66
2022/03/30 05:41:43;;;;;;;118.85;44.83;;;;;;;;;;5072016;28;20032;-66
2022/03/30 05:44:09;;;;;;;126.55;43.92;;;;;;;;;;5070312;28;20016;-65
2022/03/30 05:46:36;;;;;;;124.80;46.92;;;;;;;;;;5070185;28;20055;-65
2022/03/30 05:49:03;;;;;;;120.05;40.67;;;;;;;;;;5069249;28;20031;-65
2022/03/30 05:51:30;;;;;;;127.18;45.53;;;;;;;;;;5066731;28;20027;-66
2022/03/30 05:53:56;;;;;;;127.22;46.63;;;;;;;;;;5071418;28;20512;-66
2022/03/30 05:57:00;;;;;;;130.05;46.33;;;;;;;;;;5068522;28;20031;-65
2022/03/30 05:59:09;;;;;;;128.73;47.90;;;;;;;;;;5065773;28;20025;-66
2022/03/30 06:01:35;;;;;;;133.57;44.55;;;;;;;;;;5067970;28;20020;-65
2022/03/30 06:04:02;;;;;;;133.63;44.03;;;;;;;;;;5070034;28;20476;-66
2022/03/30 06:06:28;;;;;;;149.07;47.70;;;;;;;;;;5065453;28;20029;-66
2022/03/30 06:08:54;;;;;;;140.00;50.20;;;;;;;;;;5071562;28;20364;-66
2022/03/30 06:11:20;;;;;;;128.15;45.92;;;;;;;;;;5070245;28;20016;-66
2022/03/30 06:13:46;;;;;;;129.23;46.47;;;;;;;;;;5072304;28;20039;-66
2022/03/30 06:16:14;;;;;;;130.40;48.13;;;;;;;;;;5068681;28;20115;-66
2022/03/30 06:18:40;;;;;;;126.45;45.53;;;;;;;;;;5070037;28;20029;-66
2022/03/30 06:21:06;;;;;;;130.82;49.58;;;;;;;;;;5069765;28;20441;-65
2022/03/30 06:23:33;;;;;;;147.55;49.20;;;;;;;;;;5068468;28;20085;-66
2022/03/30 06:26:01;;;;;;;136.65;51.10;;;;;;;;;;5072321;28;20138;-66
2022/03/30 06:28:27;;;;;;;132.25;48.75;;;;;;;;;;5071674;28;20012;-66
2022/03/30 06:30:53;;;;;;;133.30;48.40;;;;;;;;;;5065845;28;20485;-66
2022/03/30 06:33:19;;;;;;;130.63;48.58;;;;;;;;;;5066814;28;20043;-66
2022/03/30 06:35:46;;;;;;;147.18;48.17;;;;;;;;;;5070032;28;20507;-66
2022/03/30 06:38:12;;;;;;;142.80;49.53;;;;;;;;;;5069237;28;20044;-66
2022/03/30 06:40:38;;;;;;;138.43;47.17;;;;;;;;;;5068296;28;20427;-66
2022/03/30 06:43:05;;;;;;;147.70;50.80;;;;;;;;;;5071284;28;20024;-66
2022/03/30 06:45:31;;;;;;;129.63;46.80;;;;;;;;;;5066263;28;20500;-66
2022/03/30 06:47:57;;;;;;;136.15;49.53;;;;;;;;;;5066795;28;20025;-66
2022/03/30 06:50:24;;;;;;;144.02;50.65;;;;;;;;;;5067641;28;20525;-66
2022/03/30 06:52:50;;;;;;;151.93;54.13;;;;;;;;;;5072265;28;20037;-66
2022/03/30 06:55:16;;;;;;;144.98;51.90;;;;;;;;;;5067376;28;20447;-66
2022/03/30 06:57:43;;;;;;;156.10;54.67;;;;;;;;;;5068552;28;20055;-65
2022/03/30 07:00:12;;;;;;;150.23;53.38;;;;;;;;;;5065429;28;20021;-66
2022/03/30 07:02:38;;;;;;;155.30;51.10;;;;;;;;;;5072597;28;20082;-66
2022/03/30 07:05:05;;;;;;;156.50;51.38;;;;;;;;;;5070627;28;20035;-66
2022/03/30 07:10:16;;;;;;;152.63;49.90;;;;;;;;;;5073397;28;20054;-66
2022/03/30 07:12:43;;;;;;;152.20;53.70;;;;;;;;;;5068989;28;20395;-66
2022/03/30 07:15:09;;;;;;;151.02;51.33;;;;;;;;;;5067607;28;20057;-65
2022/03/30 07:17:42;;;;;;;170.15;56.13;;;;;;;;;;5070203;28;20028;-66
2022/03/30 07:20:10;;;;;;;139.60;52.53;;;;;;;;;;5068495;28;20514;-66
2022/03/30 07:22:36;;;;;;;145.45;50.35;;;;;;;;;;5069659;28;20024;-66
2022/03/30 07:25:03;;;;;;;166.93;56.08;;;;;;;;;;5067377;28;20054;-66
2022/03/30 07:27:30;;;;;;;151.48;53.78;;;;;;;;;;5066631;28;20538;-66
2022/03/30 07:29:56;;;;;;;147.57;52.83;;;;;;;;;;5068688;28;20021;-66
2022/03/30 07:32:23;;;;;;;156.30;54.40;;;;;;;;;;5065743;28;20570;-65
2022/03/30 07:34:52;;;;;;;157.07;54.42;;;;;;;;;;5068294;28;20028;-65
2022/03/30 07:37:18;;;;;;;148.95;52.28;;;;;;;;;;5071325;28;20028;-65
2022/03/30 07:39:44;;;;;;;152.15;53.17;;;;;;;;;;5061376;28;20514;-65
2022/03/30 07:42:10;;;;;;;159.48;53.72;;;;;;;;;;5072239;28;20036;-65
2022/03/30 07:44:36;;;;;;;157.90;54.17;;;;;;;;;;5069258;28;20435;-65
2022/03/30 07:47:04;;;;;;;168.07;55.22;;;;;;;;;;5071614;28;20025;-66
2022/03/30 07:49:30;;;;;;;166.18;56.03;;;;;;;;;;5062008;28;20032;-66
2022/03/30 07:51:58;;;;;;;158.68;56.45;;;;;;;;;;5068322;28;20025;-66
2022/03/30 07:54:24;;;;;;;161.85;55.67;;;;;;;;;;5071066;28;20074;-66
2022/03/30 07:56:51;;;;;;;166.88;57.00;;;;;;;;;;5069900;28;20028;-66
2022/03/30 07:59:17;;;;;;;163.00;55.15;;;;;;;;;;5071410;28;20388;-66
2022/03/30 08:01:43;;;;;;;171.18;57.08;;;;;;;;;;5070056;28;20028;-66
2022/03/30 08:04:09;;;;;;;166.60;56.58;;;;;;;;;;5070769;28;20027;-66
2022/03/30 08:06:35;;;;;;;177.00;59.15;;;;;;;;;;5070185;28;20043;-66
2022/03/30 08:09:02;;;;;;;161.30;56.22;;;;;;;;;;5070798;28;20096;-66
2022/03/30 08:11:28;;;;;;;174.30;59.25;;;;;;;;;;5068819;28;20075;-66
2022/03/30 08:13:56;;;;;;;174.23;56.95;;;;;;;;;;5068662;28;20056;-66
2022/03/30 08:16:23;;;;;;;149.35;53.90;;;;;;;;;;5070963;28;20595;-65
2022/03/30 08:18:49;;;;;;;154.90;54.22;;;;;;;;;;5070278;28;20028;-68
2022/03/30 08:24:02;;;;;;;155.88;56.95;;;;;;;;;;5069595;28;20029;-68
2022/03/30 08:26:28;;;;;;;143.77;52.28;;;;;;;;;;5069192;28;20024;-68
2022/03/30 08:28:55;;;;;;;160.93;56.15;;;;;;;;;;5068915;28;20029;-68
2022/03/30 08:31:21;;;;;;;135.52;51.65;;;;;;;;;;5067857;28;20024;-68
2022/03/30 08:33:47;;;;;;;160.27;54.95;;;;;;;;;;5066920;28;20035;-68
2022/03/30 08:36:13;;;;;;;142.45;51.45;;;;;;;;;;5063210;28;20476;-68
2022/03/30 08:38:39;;;;;;;144.48;51.42;;;;;;;;;;5066469;28;20122;-68
2022/03/30 08:41:06;;;;;;;144.95;51.58;;;;;;;;;;5071135;28;20480;-69
2022/03/30 08:43:32;;;;;;;138.30;51.03;;;;;;;;;;5073984;28;20047;-68
2022/03/30 08:46:00;;;;;;;137.13;46.78;;;;;;;;;;5067462;28;20044;-68
2022/03/30 08:48:27;;;;;;;132.35;50.22;;;;;;;;;;5074642;28;20178;-68
2022/03/30 08:50:53;;;;;;;126.82;47.42;;;;;;;;;;5067877;28;20043;-68
2022/03/30 08:53:20;;;;;;;133.32;47.83;;;;;;;;;;5069056;28;20024;-68
2022/03/30 08:55:46;;;;;;;129.93;48.75;;;;;;;;;;5071054;28;20037;-68
2022/03/30 08:58:12;;;;;;;127.00;47.72;;;;;;;;;;5071813;28;20120;-68
2022/03/30 09:00:38;;;;;;;121.53;46.53;;;;;;;;;;5074447;28;20054;-68
2022/03/30 09:03:07;;;;;;;120.07;47.78;;;;;;;;;;5073853;28;20460;-68
2022/03/30 09:05:35;;;;;;;116.47;45.28;;;;;;;;;;5072893;28;20029;-68
2022/03/30 09:08:08;;;;;;;123.07;46.17;;;;;;;;;;5074082;28;20024;-68
2022/03/30 09:10:35;;;;;;;124.65;48.25;;;;;;;;;;5071993;28;20032;-68
2022/03/30 09:13:01;;;;;;;123.53;45.67;;;;;;;;;;5072663;28;20033;-68
2022/03/30 09:15:28;;;;;;;112.60;45.22;;;;;;;;;;5073748;28;20050;-68
2022/03/30 09:17:58;;;;;;;109.85;43.28;;;;;;;;;;5073124;28;20107;-69
2022/03/30 09:20:25;;;;;;;113.82;42.05;;;;;;;;;;5068354;28;20040;-68
2022/03/30 09:22:54;;;;;;;109.68;43.53;;;;;;;;;;5071390;28;20443;-68
2022/03/30 09:25:23;;;;;;;106.35;42.03;;;;;;;;;;5072108;28;20057;-68
2022/03/30 09:27:52;;;;;;;99.63;39.50;;;;;;;;;;5071362;28;20020;-68
2022/03/30 09:30:19;;;;;;;109.90;41.90;;;;;;;;;;5069529;28;20028;-68
2022/03/30 09:32:47;;;;;;;100.38;41.05;;;;;;;;;;5073003;28;20028;-68
2022/03/30 09:35:19;;;;;;;107.80;41.53;;;;;;;;;;5072410;28;20067;-68
2022/03/30 09:37:46;;;;;;;97.93;38.65;;;;;;;;;;5073669;28;20020;-68
2022/03/30 09:40:12;;;;;;;106.85;43.10;;;;;;;;;;5072156;28;20029;-68
2022/03/30 09:42:38;;;;;;;103.43;42.65;;;;;;;;;;5075779;28;20410;-68
2022/03/30 09:45:05;;;;;;;107.75;41.90;;;;;;;;;;5069809;28;20019;-68
2022/03/30 09:47:39;;;;;;;115.45;42.45;;;;;;;;;;5070334;28;20560;-68
2022/03/30 09:50:07;;;;;;;91.55;38.53;;;;;;;;;;5068996;28;20083;-68
2022/03/30 09:52:33;;;;;;;91.95;37.55;;;;;;;;;;5067808;28;20052;-68
2022/03/30 09:55:00;;;;;;;93.25;35.33;;;;;;;;;;5072870;28;20052;-68
2022/03/30 09:57:29;;;;;;;96.47;39.30;;;;;;;;;;5072506;28;20029;-68
2022/03/30 09:59:56;;;;;;;91.47;35.95;;;;;;;;;;5069425;28;20036;-68
2022/03/30 10:02:23;;;;;;;97.07;39.35;;;;;;;;;;5071230;28;20028;-68
2022/03/30 10:04:50;;;;;;;96.65;39.55;;;;;;;;;;5073300;28;20039;-68
2022/03/30 10:07:16;;;;;;;97.68;37.40;;;;;;;;;;5071756;28;20028;-68
2022/03/30 10:09:43;;;;;;;80.13;36.50;;;;;;;;;;5071477;28;20028;-68
2022/03/30 10:12:09;;;;;;;96.38;37.63;;;;;;;;;;5069873;28;20144;-68
2022/03/30 10:14:39;;;;;;;96.25;37.25;;;;;;;;;;5067648;28;20055;-68
2022/03/30 10:17:06;;;;;;;91.28;37.83;;;;;;;;;;5070327;28;20021;-68
2022/03/30 10:19:32;;;;;;;95.75;38.58;;;;;;;;;;5071959;28;20434;-68
2022/03/30 10:22:03;;;;;;;94.90;36.97;;;;;;;;;;5069760;28;20346;-68
2022/03/30 10:24:49;;;;;;;88.82;38.63;;;;;;;;;;5070828;28;20016;-68
2022/03/30 10:27:15;;;;;;;101.60;43.45;;;;;;;;;;5071102;28;20036;-68
2022/03/30 10:29:53;;;;;;;96.03;39.78;;;;;;;;;;5071108;28;20028;-68
2022/03/30 10:32:27;;;;;;;91.85;38.92;;;;;;;;;;5068661;28;20040;-68
2022/03/30 10:34:56;;;;;;;87.15;34.90;;;;;;;;;;5070902;28;20025;-68
2022/03/30 10:37:36;;;;;;;94.90;37.08;;;;;;;;;;5071299;28;20442;-68
2022/03/30 10:40:06;;;;;;;86.65;35.85;;;;;;;;;;5069989;28;20518;-68
2022/03/30 10:42:52;;;;;;;86.82;33.90;;;;;;;;;;5070803;28;20036;-68
2022/03/30 10:45:30;;;;;;;82.90;36.60;;;;;;;;;;5072265;28;20120;-68
2022/03/30 10:48:05;;;;;;;83.38;36.00;;;;;;;;;;5071493;28;20020;-68
2022/03/30 10:50:33;;;;;;;94.55;37.35;;;;;;;;;;5071187;28;20029;-68
2022/03/30 10:52:59;;;;;;;96.72;38.63;;;;;;;;;;5072333;28;20029;-68
2022/03/30 10:55:26;;;;;;;91.05;36.90;;;;;;;;;;5072297;28;20050;-68
2022/03/30 10:57:53;;;;;;;96.70;38.65;;;;;;;;;;5072286;28;20078;-68
2022/03/30 11:00:23;;;;;;;88.97;36.17;;;;;;;;;;5069831;28;20397;-68
2022/03/30 11:02:50;;;;;;;90.38;36.40;;;;;;;;;;5069653;28;20063;-68
2022/03/30 11:05:17;;;;;;;92.97;37.30;;;;;;;;;;5060473;28;20059;-68
2022/03/30 11:07:43;;;;;;;84.93;34.05;;;;;;;;;;5070143;28;20175;-68
2022/03/30 11:10:23;;;;;;;88.03;35.83;;;;;;;;;;5062417;28;20029;-68
2022/03/30 11:12:56;;;;;;;86.05;34.85;;;;;;;;;;5062968;28;20059;-68
2022/03/30 11:15:23;;;;;;;95.45;36.58;;;;;;;;;;5069393;28;20412;-68
2022/03/30 11:17:49;;;;;;;87.13;35.47;;;;;;;;;;5071394;28;20431;-68
2022/03/30 11:20:16;;;;;;;87.38;34.38;;;;;;;;;;5075106;28;20447;-68
2022/03/30 11:22:44;;;;;;;77.15;33.90;;;;;;;;;;5074885;28;20138;-68
2022/03/30 11:25:18;;;;;;;80.70;34.45;;;;;;;;;;5065802;28;20039;-68
2022/03/30 11:27:45;;;;;;;76.05;32.85;;;;;;;;;;5070806;28;20078;-68
2022/03/30 11:30:18;;;;;;;71.85;31.17;;;;;;;;;;5067977;28;20049;-68
2022/03/30 11:32:50;;;;;;;75.18;31.27;;;;;;;;;;5061557;28;20506;-68
2022/03/30 11:35:17;;;;;;;69.10;30.07;;;;;;;;;;5067215;28;20035;-68
2022/03/30 11:37:46;;;;;;;74.25;31.45;;;;;;;;;;5068357;28;20059;-68
2022/03/30 11:40:15;;;;;;;71.65;31.75;;;;;;;;;;5068529;28;20032;-68
2022/03/30 11:42:42;;;;;;;71.90;29.63;;;;;;;;;;5065628;28;20077;-68
2022/03/30 11:45:13;;;;;;;64.72;29.20;;;;;;;;;;5068750;28;20020;-68
2022/03/30 11:47:46;;;;;;;70.82;31.30;;;;;;;;;;5069763;28;20028;-68
2022/03/30 11:50:13;;;;;;;69.15;30.33;;;;;;;;;;5065542;28;20017;-68
2022/03/30 11:52:39;;;;;;;67.55;31.23;;;;;;;;;;5068482;28;20032;-67
2022/03/30 11:55:07;;;;;;;63.13;28.60;;;;;;;;;;5064231;28;20120;-68
2022/03/30 11:57:38;;;;;;;64.28;28.77;;;;;;;;;;5059973;28;20544;-68
2022/03/30 12:00:09;;;;;;;63.90;27.58;;;;;;;;;;5068690;28;20067;-68
2022/03/30 12:02:45;;;;;;;59.25;28.10;;;;;;;;;;5068419;28;20771;-68
2022/03/30 12:05:11;;;;;;;;;;;;;;;;;;5070536;28;20020;-67
2022/03/30 12:07:38;;;;;;;63.92;27.42;;;;;;;;;;5071855;28;19908;-68
2022/03/30 12:10:08;;;;;;;62.33;27.38;;;;;;;;;;5069918;28;20025;-68
2022/03/30 12:12:39;;;;;;;65.47;30.20;;;;;;;;;;5071269;28;20052;-68
2022/03/30 12:15:11;;;;;;;54.67;26.08;;;;;;;;;;5071441;28;20048;-68
2022/03/30 12:17:37;;;;;;;66.70;28.42;;;;;;;;;;5080036;28;20434;-68
2022/03/30 12:20:06;;;;;;;64.43;28.23;;;;;;;;;;5076155;28;20107;-68
2022/03/30 12:22:33;;;;;;;64.38;28.13;;;;;;;;;;5072736;28;20058;-68
2022/03/30 12:24:59;;;;;;;68.63;27.52;;;;;;;;;;5077331;28;20076;-68
2022/03/30 12:27:25;;;;;;;62.83;26.65;;;;;;;;;;5077627;28;20024;-68
2022/03/30 12:29:56;;;;;;;68.50;29.15;;;;;;;;;;5078028;28;20024;-68
2022/03/30 12:32:26;;;;;;;66.18;28.50;;;;;;;;;;5079843;28;20081;-67
2022/03/30 12:35:11;;;;;;;68.95;29.63;;;;;;;;;;5083169;28;20032;-68
2022/03/30 12:37:37;;;;;;;69.10;28.75;;;;;;;;;;5076967;28;20388;-68
2022/03/30 12:40:13;;;;;;;71.63;28.08;;;;;;;;;;5077138;28;20020;-68
2022/03/30 12:42:39;;;;;;;63.13;29.23;;;;;;;;;;5080830;28;20550;-68
2022/03/30 12:45:15;;;;;;;63.08;28.02;;;;;;;;;;5075006;28;20507;-68
2022/03/30 12:47:54;;;;;;;65.55;28.15;;;;;;;;;;5082694;28;20020;-68
2022/03/30 12:50:32;;;;;;;63.65;27.38;;;;;;;;;;5077539;28;20029;-68
2022/03/30 12:53:14;;;;;;;66.47;27.58;;;;;;;;;;5084766;28;21015;-68
2022/03/30 12:55:42;;;;;;;68.00;27.88;;;;;;;;;;5074224;28;20021;-68
2022/03/30 12:58:11;;;;;;;66.07;29.10;;;;;;;;;;5078128;28;20408;-68
2022/03/30 13:00:41;;;;;;;64.63;28.48;;;;;;;;;;5073268;28;20115;-68
2022/03/30 13:03:18;;;;;;;61.63;26.13;;;;;;;;;;5081206;28;20023;-68
2022/03/30 13:05:45;;;;;;;65.28;27.65;;;;;;;;;;5075187;28;20016;-68
2022/03/30 13:08:19;;;;;;;66.43;28.27;;;;;;;;;;5077813;28;20206;-68
2022/03/30 13:10:51;;;;;;;63.88;28.50;;;;;;;;;;5084834;28;20038;-68
2022/03/30 13:13:19;;;;;;;64.38;28.08;;;;;;;;;;5071940;28;20047;-68
2022/03/30 13:15:45;;;;;;;61.10;26.98;;;;;;;;;;5075864;28;20535;-68
2022/03/30 13:18:14;;;;;;;56.63;25.70;;;;;;;;;;5088228;28;20028;-68
2022/03/30 13:20:42;;;;;;;55.65;27.08;;;;;;;;;;5076201;28;20059;-68
2022/03/30 13:23:10;;;;;;;58.63;26.17;;;;;;;;;;5075291;28;20104;-68
2022/03/30 13:25:40;;;;;;;59.65;27.25;;;;;;;;;;5075010;28;20044;-68
2022/03/30 13:28:07;;;;;;;67.13;28.73;;;;;;;;;;5076620;28;20024;-68
2022/03/30 13:30:34;;;;;;;60.42;27.55;;;;;;;;;;5074650;28;20024;-68
2022/03/30 13:33:00;;;;;;;60.92;27.70;;;;;;;;;;5079600;28;20030;-68
2022/03/30 13:35:28;;;;;;;55.40;24.98;;;;;;;;;;5073503;28;20404;-68
2022/03/30 13:37:54;;;;;;;64.63;27.40;;;;;;;;;;5072851;28;20032;-68
2022/03/30 13:40:21;;;;;;;60.70;27.08;;;;;;;;;;5077582;28;20029;-68
2022/03/30 13:42:47;;;;;;;61.63;25.90;;;;;;;;;;5079920;28;20047;-68
2022/03/30 13:45:14;;;;;;;62.85;27.10;;;;;;;;;;5079074;28;20081;-68
2022/03/30 13:47:41;;;;;;;61.30;26.65;;;;;;;;;;5075044;28;20066;-69
2022/03/30 13:50:08;;;;;;;58.67;27.60;;;;;;;;;;5082586;28;20032;-68
2022/03/30 13:52:34;;;;;;;51.55;24.75;;;;;;;;;;5077662;28;20531;-68
2022/03/30 13:55:00;;;;;;;58.03;24.58;;;;;;;;;;5075998;28;20032;-68
2022/03/30 13:57:26;;;;;;;56.45;26.25;;;;;;;;;;5070984;28;20059;-68
2022/03/30 13:59:53;;;;;;;50.40;25.50;;;;;;;;;;5071874;28;20024;-68
2022/03/30 14:02:19;;;;;;;60.00;25.90;;;;;;;;;;5075110;28;20027;-68
2022/03/30 14:04:46;;;;;;;57.08;24.95;;;;;;;;;;5064350;28;20032;-77
2022/03/30 14:07:13;;;;;;;55.47;25.67;;;;;;;;;;5070275;28;20032;-67
2022/03/30 14:09:39;;;;;;;57.42;25.67;;;;;;;;;;5068573;28;20039;-72
2022/03/30 14:12:06;;;;;;;61.13;25.55;;;;;;;;;;5071963;28;20526;-72
2022/03/30 14:14:34;;;;;;;52.20;24.48;;;;;;;;;;5065776;28;20048;-73
2022/03/30 14:17:02;;;;;;;57.25;25.95;;;;;;;;;;5063853;28;20534;-74
2022/03/30 14:19:30;;;;;;;50.80;25.35;;;;;;;;;;5060984;28;20029;-75